Time;durP1;ratioP1;P1;durP2;ratioP2;P2;SDS_P1;SDS_P2;PMS_P1;PMS_P2;Temp;Humidity;BMP_temperature;BMP_pressure;BME280_temperature;BME280_humidity;BME280_pressure;Samples;Min_cycle;Max_cycle;Signal;HPM_P1;HPM_P2
2021/03/13 00:01:49;;;;;;;80.25;54.55;;;;;;;;;;6192546;28;20540;-69
2021/03/13 00:04:50;;;;;;;79.82;53.30;;;;;;;;;;6169881;28;20566;-72
2021/03/13 00:07:51;;;;;;;84.63;54.58;;;;;;;;;;6173449;28;20133;-72
2021/03/13 00:10:53;;;;;;;86.47;55.17;;;;;;;;;;6165863;28;20142;-71
2021/03/13 00:13:54;;;;;;;95.43;56.17;;;;;;;;;;6176792;28;20137;-71
2021/03/13 00:16:55;;;;;;;92.82;55.33;;;;;;;;;;6168443;28;20416;-70
2021/03/13 00:19:56;;;;;;;91.20;55.67;;;;;;;;;;6164939;28;20813;-71
2021/03/13 00:22:58;;;;;;;88.45;54.70;;;;;;;;;;6166927;28;20617;-69
2021/03/13 00:26:00;;;;;;;85.80;55.55;;;;;;;;;;6166119;28;20541;-75
2021/03/13 00:29:01;;;;;;;92.55;55.03;;;;;;;;;;6167945;28;20121;-70
2021/03/13 00:32:03;;;;;;;92.20;57.08;;;;;;;;;;6168620;28;20043;-74
2021/03/13 00:35:04;;;;;;;94.97;56.15;;;;;;;;;;6173230;28;20043;-70
2021/03/13 00:38:06;;;;;;;84.88;55.70;;;;;;;;;;6162077;28;21188;-71
2021/03/13 00:41:07;;;;;;;82.88;54.70;;;;;;;;;;6162644;28;20123;-70
2021/03/13 00:44:09;;;;;;;86.50;56.13;;;;;;;;;;6167201;28;20133;-70
2021/03/13 00:47:10;;;;;;;88.47;56.92;;;;;;;;;;6173934;28;20079;-70
2021/03/13 00:50:12;;;;;;;89.97;54.97;;;;;;;;;;6166822;28;20054;-71
2021/03/13 00:53:14;;;;;;;85.22;56.55;;;;;;;;;;6167720;28;20047;-70
2021/03/13 00:56:15;;;;;;;91.72;58.15;;;;;;;;;;6170065;28;20502;-73
2021/03/13 00:59:17;;;;;;;84.65;54.38;;;;;;;;;;6162936;28;20465;-71
2021/03/13 01:02:18;;;;;;;89.88;56.35;;;;;;;;;;6159502;28;20074;-72
2021/03/13 01:05:20;;;;;;;87.88;55.03;;;;;;;;;;6168210;28;20169;-73
2021/03/13 01:08:21;;;;;;;84.13;56.22;;;;;;;;;;6164421;28;20864;-72
2021/03/13 01:11:22;;;;;;;92.65;56.75;;;;;;;;;;6167874;28;20133;-70
2021/03/13 01:14:24;;;;;;;99.63;58.85;;;;;;;;;;6151233;28;20043;-71
2021/03/13 01:17:25;;;;;;;93.80;56.97;;;;;;;;;;6153242;28;20058;-74
2021/03/13 01:20:27;;;;;;;93.55;56.55;;;;;;;;;;6158964;28;20046;-71
2021/03/13 01:23:28;;;;;;;96.72;59.28;;;;;;;;;;6170143;28;20137;-73
2021/03/13 01:26:29;;;;;;;93.30;58.67;;;;;;;;;;6163559;28;20146;-74
2021/03/13 01:29:31;;;;;;;94.13;58.47;;;;;;;;;;6160616;28;20047;-69
2021/03/13 01:32:32;;;;;;;93.20;59.55;;;;;;;;;;6177992;28;20074;-71
2021/03/13 01:35:33;;;;;;;93.13;57.00;;;;;;;;;;6157044;28;20043;-70
2021/03/13 01:38:34;;;;;;;91.10;58.78;;;;;;;;;;6157119;28;20047;-71
2021/03/13 01:41:35;;;;;;;93.30;56.95;;;;;;;;;;6157871;28;20173;-71
2021/03/13 01:44:37;;;;;;;91.95;57.38;;;;;;;;;;6153378;28;20071;-71
2021/03/13 01:47:38;;;;;;;90.07;58.17;;;;;;;;;;6153939;28;20075;-72
2021/03/13 01:50:39;;;;;;;93.22;59.50;;;;;;;;;;6163374;28;20130;-72
2021/03/13 01:53:40;;;;;;;89.85;57.28;;;;;;;;;;6164174;28;20057;-72
2021/03/13 01:56:42;;;;;;;94.03;58.83;;;;;;;;;;6165770;28;20054;-71
2021/03/13 01:59:45;;;;;;;92.88;59.28;;;;;;;;;;6151500;28;20482;-71
2021/03/13 02:02:46;;;;;;;89.35;57.75;;;;;;;;;;6152042;28;20174;-73
2021/03/13 02:05:49;;;;;;;93.28;58.58;;;;;;;;;;6156464;28;20047;-73
2021/03/13 02:08:55;;;;;;;93.05;58.13;;;;;;;;;;6164728;28;20489;-72
2021/03/13 02:12:05;;;;;;;87.97;56.65;;;;;;;;;;6162511;28;20485;-72
2021/03/13 02:15:12;;;;;;;92.03;57.25;;;;;;;;;;6168470;28;20093;-72
2021/03/13 02:18:22;;;;;;;96.45;56.55;;;;;;;;;;6157592;28;20043;-72
2021/03/13 02:21:26;;;;;;;90.50;58.55;;;;;;;;;;6158682;28;20098;-72
2021/03/13 02:24:57;;;;;;;94.95;58.92;;;;;;;;;;6170251;28;20145;-74
2021/03/13 02:28:04;;;;;;;97.78;59.47;;;;;;;;;;6157904;28;20118;-73
2021/03/13 02:31:06;;;;;;;92.32;59.95;;;;;;;;;;6164681;28;20051;-72
2021/03/13 02:34:07;;;;;;;95.32;59.83;;;;;;;;;;6168040;28;20121;-76
2021/03/13 02:37:22;;;;;;;92.78;57.47;;;;;;;;;;6165016;28;20539;-72
2021/03/13 02:40:26;;;;;;;90.25;58.83;;;;;;;;;;6163227;28;20139;-70
2021/03/13 02:43:28;;;;;;;93.55;57.85;;;;;;;;;;6163793;28;20047;-72
2021/03/13 02:46:30;;;;;;;92.28;56.90;;;;;;;;;;6165313;28;20053;-73
2021/03/13 02:49:32;;;;;;;97.00;58.72;;;;;;;;;;6157891;28;20725;-71
2021/03/13 02:52:34;;;;;;;97.03;59.78;;;;;;;;;;6163637;28;20064;-71
2021/03/13 02:55:35;;;;;;;98.10;61.60;;;;;;;;;;6167024;28;20074;-74
2021/03/13 02:58:37;;;;;;;93.25;59.60;;;;;;;;;;6167655;28;20566;-71
2021/03/13 03:01:40;;;;;;;97.72;62.20;;;;;;;;;;6155920;28;20044;-70
2021/03/13 03:04:42;;;;;;;102.57;60.25;;;;;;;;;;6174009;28;20149;-70
2021/03/13 03:07:44;;;;;;;97.63;61.00;;;;;;;;;;6152136;28;20138;-70
2021/03/13 03:10:45;;;;;;;98.03;60.15;;;;;;;;;;6164509;28;20510;-70
2021/03/13 03:13:47;;;;;;;93.72;60.08;;;;;;;;;;6155645;28;20043;-71
2021/03/13 03:16:52;;;;;;;96.50;60.47;;;;;;;;;;6151811;28;20573;-69
2021/03/13 03:19:54;;;;;;;102.63;63.33;;;;;;;;;;6157349;28;20351;-69
2021/03/13 03:22:55;;;;;;;97.60;60.75;;;;;;;;;;6152567;28;20130;-69
2021/03/13 03:25:57;;;;;;;92.13;59.03;;;;;;;;;;6152219;28;20125;-72
2021/03/13 03:28:58;;;;;;;97.88;61.75;;;;;;;;;;6168666;28;20177;-72
2021/03/13 03:32:02;;;;;;;95.93;60.42;;;;;;;;;;6160724;28;20142;-72
2021/03/13 03:35:04;;;;;;;93.60;60.17;;;;;;;;;;6165329;28;20406;-74
2021/03/13 03:38:05;;;;;;;95.30;60.50;;;;;;;;;;6159359;28;20133;-69
2021/03/13 03:41:07;;;;;;;100.57;61.15;;;;;;;;;;6157485;28;20161;-73
2021/03/13 03:44:12;;;;;;;95.43;59.63;;;;;;;;;;6167174;28;20138;-70
2021/03/13 03:47:14;;;;;;;94.90;58.10;;;;;;;;;;6160920;28;20138;-72
2021/03/13 03:50:16;;;;;;;98.80;60.97;;;;;;;;;;6173473;28;20125;-70
2021/03/13 03:53:18;;;;;;;92.20;57.53;;;;;;;;;;6160486;28;20581;-70
2021/03/13 03:56:20;;;;;;;96.22;60.03;;;;;;;;;;6156723;28;20429;-70
2021/03/13 03:59:22;;;;;;;96.25;60.80;;;;;;;;;;6167261;28;20577;-70
2021/03/13 04:02:25;;;;;;;93.28;58.80;;;;;;;;;;6162636;28;20133;-71
2021/03/13 04:05:27;;;;;;;95.43;58.60;;;;;;;;;;6166432;28;20057;-70
2021/03/13 04:08:29;;;;;;;85.38;56.25;;;;;;;;;;6165506;28;20134;-70
2021/03/13 04:11:31;;;;;;;86.15;55.83;;;;;;;;;;6159236;28;20560;-73
2021/03/13 04:14:33;;;;;;;82.05;53.45;;;;;;;;;;6163290;28;20074;-69
2021/03/13 04:17:35;;;;;;;84.22;53.10;;;;;;;;;;6166393;28;20135;-69
2021/03/13 04:20:37;;;;;;;88.50;55.63;;;;;;;;;;6166527;28;20074;-69
2021/03/13 04:23:41;;;;;;;88.40;55.25;;;;;;;;;;6167142;28;20137;-72
2021/03/13 04:26:43;;;;;;;93.07;54.17;;;;;;;;;;6160009;28;20497;-72
2021/03/13 04:29:45;;;;;;;84.72;54.20;;;;;;;;;;6168062;28;20059;-71
2021/03/13 04:32:48;;;;;;;89.28;55.20;;;;;;;;;;6166403;28;20398;-74
2021/03/13 04:35:51;;;;;;;91.03;56.47;;;;;;;;;;6163141;28;20451;-71
2021/03/13 04:38:54;;;;;;;89.47;54.60;;;;;;;;;;6164898;28;20122;-71
2021/03/13 04:41:55;;;;;;;89.55;55.08;;;;;;;;;;6164132;28;20067;-71
2021/03/13 04:44:57;;;;;;;92.10;56.53;;;;;;;;;;6164607;28;20133;-73
2021/03/13 04:47:59;;;;;;;89.35;55.90;;;;;;;;;;6161641;28;20079;-71
2021/03/13 04:51:02;;;;;;;91.95;56.72;;;;;;;;;;6161395;28;20569;-69
2021/03/13 04:54:03;;;;;;;96.57;57.60;;;;;;;;;;6165379;28;20114;-70
2021/03/13 04:57:05;;;;;;;94.43;59.03;;;;;;;;;;6170852;28;20042;-69
2021/03/13 05:00:09;;;;;;;103.18;62.05;;;;;;;;;;6166670;28;20130;-70
2021/03/13 05:03:11;;;;;;;98.97;67.05;;;;;;;;;;6172137;28;20050;-70
2021/03/13 05:06:12;;;;;;;103.78;61.80;;;;;;;;;;6162650;28;20043;-69
2021/03/13 05:09:13;;;;;;;97.97;61.72;;;;;;;;;;6164571;28;20046;-69
2021/03/13 05:12:14;;;;;;;99.60;62.88;;;;;;;;;;6165514;28;20134;-69
2021/03/13 05:15:15;;;;;;;94.45;63.50;;;;;;;;;;6158720;28;20130;-70
2021/03/13 05:18:17;;;;;;;109.40;65.57;;;;;;;;;;6157589;28;21083;-69
2021/03/13 05:21:18;;;;;;;101.25;63.90;;;;;;;;;;6169342;28;20066;-70
2021/03/13 05:24:19;;;;;;;110.05;64.57;;;;;;;;;;6169240;28;20101;-69
2021/03/13 05:27:21;;;;;;;101.10;63.03;;;;;;;;;;6165016;28;20129;-70
2021/03/13 05:30:22;;;;;;;100.53;60.58;;;;;;;;;;6163275;28;20133;-72
2021/03/13 05:33:24;;;;;;;97.90;58.90;;;;;;;;;;6159794;28;20054;-69
2021/03/13 05:36:25;;;;;;;94.80;59.90;;;;;;;;;;6160859;28;20142;-69
2021/03/13 05:39:26;;;;;;;102.07;61.75;;;;;;;;;;6165470;28;20141;-69
2021/03/13 05:42:28;;;;;;;100.97;60.22;;;;;;;;;;6164652;28;20070;-69
2021/03/13 05:45:30;;;;;;;93.38;59.05;;;;;;;;;;6157786;28;20055;-70
2021/03/13 05:48:34;;;;;;;96.53;59.33;;;;;;;;;;6160230;28;20533;-71
2021/03/13 05:51:36;;;;;;;93.88;58.50;;;;;;;;;;6169308;28;20074;-69
2021/03/13 05:54:38;;;;;;;96.65;60.55;;;;;;;;;;6167952;28;20085;-72
2021/03/13 05:57:39;;;;;;;102.63;61.17;;;;;;;;;;6162723;28;20055;-69
2021/03/13 06:00:41;;;;;;;96.22;59.38;;;;;;;;;;6163115;28;20060;-69
2021/03/13 06:03:43;;;;;;;97.80;58.35;;;;;;;;;;6161175;28;20199;-73
2021/03/13 06:06:45;;;;;;;95.70;58.10;;;;;;;;;;6161524;28;20559;-71
2021/03/13 06:09:46;;;;;;;93.68;58.58;;;;;;;;;;6154776;28;20054;-68
2021/03/13 06:12:47;;;;;;;97.63;57.00;;;;;;;;;;6163105;28;20142;-73
2021/03/13 06:15:48;;;;;;;94.85;58.53;;;;;;;;;;6163389;28;20182;-69
2021/03/13 06:18:56;;;;;;;99.40;57.35;;;;;;;;;;6163170;28;20053;-69
2021/03/13 06:21:57;;;;;;;91.53;54.03;;;;;;;;;;6163919;28;20057;-70
2021/03/13 06:25:24;;;;;;;94.15;55.22;;;;;;;;;;6163743;28;20083;-69
2021/03/13 06:28:30;;;;;;;85.40;51.92;;;;;;;;;;6172200;28;20459;-69
2021/03/13 06:31:31;;;;;;;76.95;47.45;;;;;;;;;;6160768;28;20050;-68
2021/03/13 06:34:33;;;;;;;73.97;44.38;;;;;;;;;;6161049;28;20042;-72
2021/03/13 06:37:34;;;;;;;65.18;41.60;;;;;;;;;;6162254;28;20051;-69
2021/03/13 06:40:37;;;;;;;59.67;38.55;;;;;;;;;;6163534;28;20130;-69
2021/03/13 06:43:40;;;;;;;61.25;37.45;;;;;;;;;;6160114;28;20630;-69
2021/03/13 06:46:41;;;;;;;58.83;37.15;;;;;;;;;;6154227;28;20098;-70
2021/03/13 06:49:42;;;;;;;62.45;38.55;;;;;;;;;;6165355;28;20066;-69
2021/03/13 06:52:45;;;;;;;64.53;40.45;;;;;;;;;;6170369;28;20129;-69
2021/03/13 06:55:46;;;;;;;63.53;40.03;;;;;;;;;;6171238;28;20490;-69
2021/03/13 06:58:47;;;;;;;64.47;41.67;;;;;;;;;;6159571;28;20067;-70
2021/03/13 07:01:58;;;;;;;59.90;38.85;;;;;;;;;;6160683;28;20137;-71
2021/03/13 07:05:18;;;;;;;60.53;39.38;;;;;;;;;;6162839;28;20173;-69
2021/03/13 07:08:24;;;;;;;54.13;36.08;;;;;;;;;;6165056;28;20066;-71
2021/03/13 07:11:25;;;;;;;56.13;35.25;;;;;;;;;;6168100;28;20069;-69
2021/03/13 07:14:26;;;;;;;53.25;32.78;;;;;;;;;;6164820;28;20077;-70
2021/03/13 07:17:27;;;;;;;51.50;32.83;;;;;;;;;;6164909;28;20143;-69
2021/03/13 07:20:31;;;;;;;51.17;33.08;;;;;;;;;;6158705;28;20166;-70
2021/03/13 07:23:32;;;;;;;45.73;31.90;;;;;;;;;;6164683;28;20553;-72
2021/03/13 07:26:36;;;;;;;52.60;32.28;;;;;;;;;;6159733;28;20502;-69
2021/03/13 07:29:39;;;;;;;52.10;33.42;;;;;;;;;;6164928;28;20401;-69
2021/03/13 07:32:43;;;;;;;50.60;31.50;;;;;;;;;;6168911;28;20454;-70
2021/03/13 07:35:51;;;;;;;45.15;29.83;;;;;;;;;;6166273;28;20438;-70
2021/03/13 07:38:55;;;;;;;43.92;27.60;;;;;;;;;;6162609;28;20074;-69
2021/03/13 07:41:58;;;;;;;43.53;27.10;;;;;;;;;;6164968;28;20194;-69
2021/03/13 07:45:00;;;;;;;40.30;25.73;;;;;;;;;;6163742;28;20086;-69
2021/03/13 07:48:02;;;;;;;40.50;26.80;;;;;;;;;;6168475;28;20137;-69
2021/03/13 07:51:04;;;;;;;45.63;28.35;;;;;;;;;;6165098;28;20133;-69
2021/03/13 07:54:07;;;;;;;46.78;27.17;;;;;;;;;;6165451;28;20151;-69
2021/03/13 07:57:10;;;;;;;44.95;27.90;;;;;;;;;;6167388;28;20530;-69
2021/03/13 08:00:12;;;;;;;46.47;26.85;;;;;;;;;;6169129;28;20054;-75
2021/03/13 08:03:40;;;;;;;38.85;27.10;;;;;;;;;;6144051;28;20570;-71
2021/03/13 08:06:58;;;;;;;47.72;28.95;;;;;;;;;;6170679;28;20053;-70
2021/03/13 08:09:59;;;;;;;42.83;28.02;;;;;;;;;;6167278;28;20229;-69
2021/03/13 08:13:00;;;;;;;43.80;27.35;;;;;;;;;;6170690;28;20150;-70
2021/03/13 08:16:03;;;;;;;40.33;28.30;;;;;;;;;;6171474;28;20137;-69
2021/03/13 08:19:05;;;;;;;46.33;30.95;;;;;;;;;;6160271;28;20131;-69
2021/03/13 08:22:12;;;;;;;43.88;30.63;;;;;;;;;;6171004;28;20133;-70
2021/03/13 08:25:25;;;;;;;49.10;32.38;;;;;;;;;;6167257;28;20046;-78
2021/03/13 08:28:55;;;;;;;47.85;31.50;;;;;;;;;;6181460;28;20712;-70
2021/03/13 08:31:56;;;;;;;50.20;33.42;;;;;;;;;;6166771;28;20051;-69
2021/03/13 08:35:06;;;;;;;53.22;33.28;;;;;;;;;;6167816;28;20077;-75
2021/03/13 08:38:08;;;;;;;51.40;33.42;;;;;;;;;;6169734;28;20050;-74
2021/03/13 08:41:09;;;;;;;48.78;32.47;;;;;;;;;;6161572;28;20455;-70
2021/03/13 08:44:11;;;;;;;46.65;32.25;;;;;;;;;;6175200;28;20149;-70
2021/03/13 08:47:14;;;;;;;46.47;31.30;;;;;;;;;;6167063;28;20241;-72
2021/03/13 08:50:51;;;;;;;43.92;30.60;;;;;;;;;;6182934;28;20046;-78
2021/03/13 08:53:54;;;;;;;42.70;32.15;;;;;;;;;;6171196;28;20581;-70
2021/03/13 08:56:55;;;;;;;47.95;32.72;;;;;;;;;;6161349;28;20043;-72
2021/03/13 09:00:00;;;;;;;49.80;34.47;;;;;;;;;;6161406;28;20078;-70
2021/03/13 09:03:03;;;;;;;55.30;34.88;;;;;;;;;;6159571;28;20470;-74
2021/03/13 09:06:05;;;;;;;50.70;35.60;;;;;;;;;;6163726;28;20089;-77
2021/03/13 09:09:15;;;;;;;49.80;35.63;;;;;;;;;;6165539;28;20118;-72
2021/03/13 09:12:18;;;;;;;54.65;36.45;;;;;;;;;;6168751;28;20071;-72
2021/03/13 09:15:19;;;;;;;49.75;35.35;;;;;;;;;;6158137;28;20074;-75
2021/03/13 09:18:20;;;;;;;48.25;33.42;;;;;;;;;;6158919;28;20047;-72
2021/03/13 09:21:45;;;;;;;52.45;36.72;;;;;;;;;;6154571;28;20236;-70
2021/03/13 09:24:53;;;;;;;54.75;37.70;;;;;;;;;;6154721;28;20125;-71
2021/03/13 09:27:54;;;;;;;55.03;40.45;;;;;;;;;;6165240;28;21913;-72
2021/03/13 09:30:55;;;;;;;62.47;40.00;;;;;;;;;;6166650;28;20039;-71
2021/03/13 09:34:15;;;;;;;60.88;39.65;;;;;;;;;;6168148;28;20057;-71
2021/03/13 09:37:17;;;;;;;55.35;39.00;;;;;;;;;;6157315;28;20063;-70
2021/03/13 09:40:20;;;;;;;58.13;40.92;;;;;;;;;;6156781;28;20097;-74
2021/03/13 09:43:21;;;;;;;56.37;41.53;;;;;;;;;;6164615;28;20047;-76
2021/03/13 09:46:24;;;;;;;56.08;42.45;;;;;;;;;;6158431;28;20379;-71
2021/03/13 09:49:26;;;;;;;59.97;44.67;;;;;;;;;;6159829;28;20097;-70
2021/03/13 09:52:28;;;;;;;55.72;41.95;;;;;;;;;;6156304;28;20051;-73
2021/03/13 09:55:31;;;;;;;52.88;41.00;;;;;;;;;;6162776;28;20079;-71
2021/03/13 09:58:32;;;;;;;60.95;44.10;;;;;;;;;;6162905;28;20141;-69
2021/03/13 10:01:35;;;;;;;65.63;46.28;;;;;;;;;;6157311;28;20130;-71
2021/03/13 10:04:36;;;;;;;63.88;45.40;;;;;;;;;;6156776;28;20150;-70
2021/03/13 10:07:39;;;;;;;62.78;44.28;;;;;;;;;;6157420;28;20047;-70
2021/03/13 10:10:44;;;;;;;60.80;45.60;;;;;;;;;;6156352;28;20074;-71
2021/03/13 10:13:52;;;;;;;64.10;45.78;;;;;;;;;;6156598;28;20043;-71
2021/03/13 10:17:00;;;;;;;59.92;47.30;;;;;;;;;;6157085;28;20077;-74
2021/03/13 10:20:12;;;;;;;64.70;45.47;;;;;;;;;;6163613;28;20075;-72
2021/03/13 10:23:15;;;;;;;66.22;46.75;;;;;;;;;;6163887;28;20494;-72
2021/03/13 10:26:18;;;;;;;60.15;45.53;;;;;;;;;;6157679;28;20861;-70
2021/03/13 10:29:25;;;;;;;66.47;44.30;;;;;;;;;;6159531;28;20053;-76
2021/03/13 10:32:28;;;;;;;62.35;47.20;;;;;;;;;;6159410;28;22124;-71
2021/03/13 10:35:31;;;;;;;56.00;45.72;;;;;;;;;;6168149;28;20074;-77
2021/03/13 10:38:39;;;;;;;56.17;43.60;;;;;;;;;;6157022;28;20051;-72
2021/03/13 10:41:49;;;;;;;54.53;44.30;;;;;;;;;;6163037;28;20046;-73
2021/03/13 10:44:51;;;;;;;54.15;42.83;;;;;;;;;;6173410;28;20082;-72
2021/03/13 10:47:52;;;;;;;50.35;41.15;;;;;;;;;;6168246;28;20070;-69
2021/03/13 10:50:55;;;;;;;49.53;39.22;;;;;;;;;;6165598;28;20165;-76
2021/03/13 10:53:58;;;;;;;46.75;38.22;;;;;;;;;;6161973;28;20465;-70
2021/03/13 10:57:07;;;;;;;45.28;38.70;;;;;;;;;;6158072;28;20051;-71
2021/03/13 11:00:09;;;;;;;51.90;40.97;;;;;;;;;;6167311;28;20073;-71
2021/03/13 11:03:10;;;;;;;46.97;36.60;;;;;;;;;;6164096;28;20519;-72
2021/03/13 11:06:12;;;;;;;41.08;36.72;;;;;;;;;;6165274;28;20738;-72
2021/03/13 11:09:15;;;;;;;49.95;37.65;;;;;;;;;;6159154;28;20042;-71
2021/03/13 11:12:17;;;;;;;39.90;34.90;;;;;;;;;;6159116;28;20054;-75
2021/03/13 11:15:19;;;;;;;40.30;35.08;;;;;;;;;;6157045;28;20077;-75
2021/03/13 11:18:21;;;;;;;42.60;36.33;;;;;;;;;;6165078;28;20951;-73
2021/03/13 11:21:22;;;;;;;45.70;38.08;;;;;;;;;;6161275;28;20137;-73
2021/03/13 11:24:23;;;;;;;42.13;36.22;;;;;;;;;;6170367;28;20057;-72
2021/03/13 11:27:26;;;;;;;43.00;35.15;;;;;;;;;;6170747;28;20470;-73
2021/03/13 11:30:27;;;;;;;47.23;34.60;;;;;;;;;;6167914;28;20524;-71
2021/03/13 11:33:28;;;;;;;44.92;33.45;;;;;;;;;;6164527;28;21739;-70
2021/03/13 11:36:29;;;;;;;48.22;34.28;;;;;;;;;;6165592;28;20158;-71
2021/03/13 11:39:30;;;;;;;41.33;30.88;;;;;;;;;;6162989;28;20503;-72
2021/03/13 11:42:32;;;;;;;38.13;31.65;;;;;;;;;;6167912;28;20085;-71
2021/03/13 11:45:33;;;;;;;34.28;30.60;;;;;;;;;;6168005;28;20558;-73
2021/03/13 11:48:34;;;;;;;34.40;30.77;;;;;;;;;;6159917;28;20125;-72
2021/03/13 11:51:36;;;;;;;35.22;30.35;;;;;;;;;;6178695;28;20133;-75
2021/03/13 11:54:37;;;;;;;37.72;30.27;;;;;;;;;;6167875;28;20082;-73
2021/03/13 11:57:39;;;;;;;36.83;29.50;;;;;;;;;;6170710;28;20050;-74
2021/03/13 12:00:40;;;;;;;37.60;29.33;;;;;;;;;;6167641;28;20047;-71
2021/03/13 12:03:42;;;;;;;33.92;28.75;;;;;;;;;;6169442;28;20488;-71
2021/03/13 12:06:43;;;;;;;34.53;28.45;;;;;;;;;;6168648;28;20066;-72
2021/03/13 12:09:44;;;;;;;33.38;28.95;;;;;;;;;;6168691;28;20137;-74
2021/03/13 12:12:46;;;;;;;35.95;28.17;;;;;;;;;;6168600;28;20072;-71
2021/03/13 12:15:47;;;;;;;36.55;29.70;;;;;;;;;;6168126;28;20089;-71
2021/03/13 12:18:48;;;;;;;32.88;28.25;;;;;;;;;;6172452;28;20065;-71
2021/03/13 12:21:50;;;;;;;33.10;27.58;;;;;;;;;;6170945;28;20051;-73
2021/03/13 12:24:51;;;;;;;33.47;27.60;;;;;;;;;;6166727;28;20046;-72
2021/03/13 12:27:53;;;;;;;31.75;27.80;;;;;;;;;;6165183;28;20078;-75
2021/03/13 12:30:54;;;;;;;30.10;26.50;;;;;;;;;;6163189;28;20138;-76
2021/03/13 12:33:55;;;;;;;28.33;24.85;;;;;;;;;;6175826;28;20149;-77
2021/03/13 12:36:56;;;;;;;28.38;25.33;;;;;;;;;;6167327;28;20471;-76
2021/03/13 12:39:57;;;;;;;31.42;27.08;;;;;;;;;;6168772;28;20054;-74
2021/03/13 12:42:59;;;;;;;31.60;26.85;;;;;;;;;;6164575;28;20163;-73
2021/03/13 12:46:00;;;;;;;32.53;25.63;;;;;;;;;;6167057;28;20089;-71
2021/03/13 12:49:01;;;;;;;34.03;26.85;;;;;;;;;;6168187;28;20046;-70
2021/03/13 12:52:03;;;;;;;29.10;26.10;;;;;;;;;;6167143;28;20161;-70
2021/03/13 12:55:05;;;;;;;35.20;26.50;;;;;;;;;;6170862;28;21427;-70
2021/03/13 12:58:07;;;;;;;30.48;24.83;;;;;;;;;;6171687;28;20085;-70
2021/03/13 13:01:08;;;;;;;32.08;26.23;;;;;;;;;;6172559;28;20058;-71
2021/03/13 13:04:10;;;;;;;30.25;26.17;;;;;;;;;;6162856;28;20138;-70
2021/03/13 13:07:11;;;;;;;31.77;26.27;;;;;;;;;;6167387;28;20077;-71
2021/03/13 13:10:12;;;;;;;32.70;26.27;;;;;;;;;;6164933;28;20500;-71
2021/03/13 13:13:16;;;;;;;29.52;26.30;;;;;;;;;;6163298;28;20456;-70
2021/03/13 13:16:17;;;;;;;30.45;24.48;;;;;;;;;;6163958;28;20125;-71
2021/03/13 13:19:18;;;;;;;32.45;25.20;;;;;;;;;;6164709;28;20054;-70
2021/03/13 13:22:19;;;;;;;29.02;25.70;;;;;;;;;;6172096;28;20169;-71
2021/03/13 13:25:20;;;;;;;29.35;24.25;;;;;;;;;;6168739;28;20149;-71
2021/03/13 13:28:23;;;;;;;29.67;23.80;;;;;;;;;;6169397;28;20062;-70
2021/03/13 13:31:24;;;;;;;32.03;24.65;;;;;;;;;;6167851;28;20080;-71
2021/03/13 13:34:25;;;;;;;28.25;24.10;;;;;;;;;;6173044;28;20062;-71
2021/03/13 13:37:26;;;;;;;30.60;24.65;;;;;;;;;;6165705;28;20078;-71
2021/03/13 13:40:28;;;;;;;29.60;25.20;;;;;;;;;;6167736;28;20090;-72
2021/03/13 13:43:30;;;;;;;28.30;22.75;;;;;;;;;;6167170;28;20065;-71
2021/03/13 13:46:31;;;;;;;32.63;23.23;;;;;;;;;;6174056;28;20480;-71
2021/03/13 13:49:32;;;;;;;27.85;23.45;;;;;;;;;;6159737;28;20085;-71
2021/03/13 13:52:33;;;;;;;28.67;21.23;;;;;;;;;;6168494;28;20121;-72
2021/03/13 13:55:36;;;;;;;25.15;20.30;;;;;;;;;;6154095;28;20101;-72
2021/03/13 13:58:39;;;;;;;26.98;20.88;;;;;;;;;;6156947;28;20046;-72
2021/03/13 14:01:40;;;;;;;30.63;22.33;;;;;;;;;;6162977;28;20071;-72
2021/03/13 14:04:41;;;;;;;25.42;20.13;;;;;;;;;;6162791;28;20846;-72
2021/03/13 14:07:42;;;;;;;26.60;21.75;;;;;;;;;;6166845;28;20505;-73
2021/03/13 14:10:43;;;;;;;26.10;20.75;;;;;;;;;;6164212;28;20130;-73
2021/03/13 14:13:45;;;;;;;27.80;21.13;;;;;;;;;;6163580;28;20161;-73
2021/03/13 14:16:46;;;;;;;25.88;19.83;;;;;;;;;;6169036;28;20132;-73
2021/03/13 14:19:47;;;;;;;25.17;19.98;;;;;;;;;;6170384;28;20413;-73
2021/03/13 14:22:49;;;;;;;26.38;19.33;;;;;;;;;;6170315;28;20074;-72
2021/03/13 14:25:50;;;;;;;23.27;17.92;;;;;;;;;;6179295;28;20430;-72
2021/03/13 14:28:56;;;;;;;26.60;18.55;;;;;;;;;;6172241;28;20062;-72
2021/03/13 14:31:57;;;;;;;28.10;20.35;;;;;;;;;;6168418;28;20132;-72
2021/03/13 14:34:58;;;;;;;28.80;19.30;;;;;;;;;;6169547;28;20075;-73
2021/03/13 14:37:59;;;;;;;23.83;19.15;;;;;;;;;;6166137;28;20046;-73
2021/03/13 14:41:00;;;;;;;22.98;18.25;;;;;;;;;;6163527;28;20729;-73
2021/03/13 14:44:03;;;;;;;30.00;19.08;;;;;;;;;;6157770;28;20046;-73
2021/03/13 14:47:04;;;;;;;25.73;18.23;;;;;;;;;;6155430;28;20051;-73
2021/03/13 14:50:07;;;;;;;24.52;18.52;;;;;;;;;;6160849;28;20628;-72
2021/03/13 14:53:08;;;;;;;27.83;17.08;;;;;;;;;;6163303;28;20042;-73
2021/03/13 14:56:09;;;;;;;23.50;17.25;;;;;;;;;;6170143;28;20074;-73
2021/03/13 14:59:12;;;;;;;20.67;16.83;;;;;;;;;;6155994;28;20055;-74
2021/03/13 15:02:13;;;;;;;21.48;15.55;;;;;;;;;;6162669;28;20126;-74
2021/03/13 15:05:15;;;;;;;25.85;15.38;;;;;;;;;;6154996;28;20162;-73
2021/03/13 15:08:16;;;;;;;21.35;14.93;;;;;;;;;;6160173;28;20055;-74
2021/03/13 15:11:18;;;;;;;35.42;15.30;;;;;;;;;;6152909;28;20192;-74
2021/03/13 15:14:20;;;;;;;44.45;16.60;;;;;;;;;;6151630;28;20043;-73
2021/03/13 15:17:21;;;;;;;24.60;15.82;;;;;;;;;;6155820;28;20063;-73
2021/03/13 15:20:22;;;;;;;17.67;12.50;;;;;;;;;;6149464;28;20186;-74
2021/03/13 15:23:23;;;;;;;16.92;12.50;;;;;;;;;;6162093;28;20229;-73
2021/03/13 15:26:24;;;;;;;17.08;12.65;;;;;;;;;;6164295;28;20082;-74
2021/03/13 15:29:26;;;;;;;17.13;11.98;;;;;;;;;;6154673;28;20129;-75
2021/03/13 15:32:27;;;;;;;20.85;11.48;;;;;;;;;;6153115;28;20051;-75
2021/03/13 15:35:29;;;;;;;18.08;12.93;;;;;;;;;;6150804;28;20070;-74
2021/03/13 15:38:32;;;;;;;23.38;15.80;;;;;;;;;;6156913;28;20050;-74
2021/03/13 15:41:34;;;;;;;24.50;15.63;;;;;;;;;;6154530;28;20767;-74
2021/03/13 15:44:36;;;;;;;23.77;16.00;;;;;;;;;;6154445;28;20438;-74
2021/03/13 15:47:39;;;;;;;23.52;16.02;;;;;;;;;;6162867;28;20101;-75
2021/03/13 15:50:41;;;;;;;21.88;15.32;;;;;;;;;;6172022;28;20063;-76
2021/03/13 15:53:42;;;;;;;24.00;15.43;;;;;;;;;;6173066;28;20130;-74
2021/03/13 15:56:43;;;;;;;21.13;15.80;;;;;;;;;;6169013;28;20062;-73
2021/03/13 15:59:45;;;;;;;21.15;15.40;;;;;;;;;;6161160;28;20047;-74
2021/03/13 16:02:46;;;;;;;23.13;16.77;;;;;;;;;;6161716;28;20109;-73
2021/03/13 16:05:47;;;;;;;23.73;17.33;;;;;;;;;;6155321;28;20078;-74
2021/03/13 16:08:49;;;;;;;22.45;16.80;;;;;;;;;;6164836;28;20340;-75
2021/03/13 16:11:50;;;;;;;25.80;17.75;;;;;;;;;;6154483;28;20062;-73
2021/03/13 16:14:52;;;;;;;29.70;19.25;;;;;;;;;;6156445;28;20046;-72
2021/03/13 16:17:53;;;;;;;28.02;18.92;;;;;;;;;;6157069;28;20055;-72
2021/03/13 16:20:54;;;;;;;25.83;18.42;;;;;;;;;;6155408;28;20075;-72
2021/03/13 16:23:55;;;;;;;26.10;18.90;;;;;;;;;;6155784;28;20047;-72
2021/03/13 16:26:56;;;;;;;27.85;18.50;;;;;;;;;;6160811;28;20058;-72
2021/03/13 16:29:58;;;;;;;27.10;17.73;;;;;;;;;;6161001;28;20160;-74
2021/03/13 16:33:00;;;;;;;28.73;18.33;;;;;;;;;;6151996;28;20059;-73
2021/03/13 16:36:06;;;;;;;26.90;17.70;;;;;;;;;;6159856;28;20050;-72
2021/03/13 16:39:07;;;;;;;24.65;18.38;;;;;;;;;;6152830;28;20039;-73
2021/03/13 16:42:09;;;;;;;26.65;17.98;;;;;;;;;;6154797;28;20489;-72
2021/03/13 16:45:11;;;;;;;26.08;17.52;;;;;;;;;;6162320;28;20153;-72
2021/03/13 16:48:12;;;;;;;23.83;18.13;;;;;;;;;;6159114;28;20086;-74
2021/03/13 16:51:13;;;;;;;29.02;18.83;;;;;;;;;;6157714;28;20123;-72
2021/03/13 16:54:15;;;;;;;28.58;18.52;;;;;;;;;;6162485;28;20125;-72
2021/03/13 16:57:16;;;;;;;27.02;18.20;;;;;;;;;;6160359;28;20082;-72
2021/03/13 17:00:19;;;;;;;29.60;17.83;;;;;;;;;;6152080;28;20482;-71
2021/03/13 17:03:21;;;;;;;28.60;18.65;;;;;;;;;;6158760;28;20054;-78
2021/03/13 17:06:22;;;;;;;25.98;17.52;;;;;;;;;;6163171;28;20057;-72
2021/03/13 17:09:23;;;;;;;28.25;17.80;;;;;;;;;;6160649;28;20121;-72
2021/03/13 17:12:24;;;;;;;29.17;19.52;;;;;;;;;;6156093;28;20458;-74
2021/03/13 17:15:26;;;;;;;28.85;17.42;;;;;;;;;;6156258;28;20129;-73
2021/03/13 17:18:27;;;;;;;28.48;18.83;;;;;;;;;;6165427;28;20055;-73
2021/03/13 17:21:28;;;;;;;28.38;17.70;;;;;;;;;;6146103;28;20126;-71
2021/03/13 17:24:29;;;;;;;31.00;19.08;;;;;;;;;;6163143;28;20131;-73
2021/03/13 17:27:31;;;;;;;30.25;19.58;;;;;;;;;;6163233;28;20055;-72
2021/03/13 17:30:33;;;;;;;31.70;19.13;;;;;;;;;;6161796;28;20134;-71
2021/03/13 17:33:34;;;;;;;30.67;19.23;;;;;;;;;;6159331;28;20134;-72
2021/03/13 17:36:36;;;;;;;27.58;17.67;;;;;;;;;;6162187;28;20154;-76
2021/03/13 17:39:37;;;;;;;31.42;19.40;;;;;;;;;;6159865;28;20149;-75
2021/03/13 17:42:39;;;;;;;27.92;19.05;;;;;;;;;;6160983;28;20406;-74